Time;durP1;ratioP1;P1;durP2;ratioP2;P2;SDS_P1;SDS_P2;PMS_P1;PMS_P2;Temp;Humidity;BMP_temperature;BMP_pressure;BME280_temperature;BME280_humidity;BME280_pressure;Samples;Min_cycle;Max_cycle;Signal;HPM_P1;HPM_P2
2022/02/22 00:01:09;;;;;;;6.50;1.80;;;3.60;98.00;;;;;;5009016;28;20468;-55
2022/02/22 00:03:36;;;;;;;4.30;1.50;;;3.70;97.30;;;;;;5008039;28;20176;-54
2022/02/22 00:06:03;;;;;;;4.37;2.00;;;3.70;94.80;;;;;;5008370;28;20247;-55
2022/02/22 00:08:29;;;;;;;3.30;1.70;;;3.70;95.10;;;;;;5012444;28;20470;-55
2022/02/22 00:10:55;;;;;;;7.00;1.80;;;3.70;95.50;;;;;;5007927;28;20447;-57
2022/02/22 00:13:20;;;;;;;6.30;1.93;;;3.60;95.70;;;;;;5008978;28;20493;-55
2022/02/22 00:15:46;;;;;;;5.80;1.67;;;3.70;96.30;;;;;;5010051;28;20420;-55
2022/02/22 00:18:12;;;;;;;6.37;1.43;;;3.70;96.40;;;;;;5008204;28;20176;-55
2022/02/22 00:20:37;;;;;;;7.13;2.00;;;3.70;95.70;;;;;;5008176;28;20206;-54
2022/02/22 00:23:05;;;;;;;3.70;1.80;;;3.70;94.60;;;;;;5008060;28;20578;-55
2022/02/22 00:25:31;;;;;;;4.13;1.60;;;3.70;95.20;;;;;;5007420;28;20203;-54
2022/02/22 00:27:56;;;;;;;4.17;1.70;;;3.70;95.20;;;;;;5009401;28;20936;-55
2022/02/22 00:30:22;;;;;;;6.30;2.23;;;3.80;94.00;;;;;;5010130;28;20717;-52
2022/02/22 00:32:48;;;;;;;3.80;1.90;;;3.80;94.50;;;;;;5011017;28;20172;-56
2022/02/22 00:35:14;;;;;;;2.87;1.90;;;3.80;94.40;;;;;;5009870;28;20218;-55
2022/02/22 00:37:41;;;;;;;5.40;1.80;;;3.80;94.80;;;;;;5009619;28;20257;-55
2022/02/22 00:40:08;;;;;;;4.00;1.67;;;3.80;95.70;;;;;;5007595;28;20574;-56
2022/02/22 00:42:34;;;;;;;9.13;1.80;;;3.80;96.40;;;;;;5007329;28;20434;-54
2022/02/22 00:45:01;;;;;;;6.10;2.07;;;3.70;97.50;;;;;;5008599;28;20929;-56
2022/02/22 00:47:27;;;;;;;6.93;1.80;;;3.70;97.80;;;;;;5008886;28;20459;-54
2022/02/22 00:49:53;;;;;;;6.33;2.20;;;3.70;98.30;;;;;;5007380;28;20821;-55
2022/02/22 00:52:19;;;;;;;5.27;1.67;;;3.80;96.30;;;;;;5008438;28;20274;-58
2022/02/22 00:54:45;;;;;;;5.77;1.90;;;3.80;97.60;;;;;;5013412;28;20443;-56
2022/02/22 00:57:11;;;;;;;2.50;1.50;;;3.70;98.60;;;;;;5009256;28;20430;-55
2022/02/22 00:59:37;;;;;;;3.60;1.33;;;3.70;99.00;;;;;;5006692;28;20432;-56
2022/02/22 01:02:03;;;;;;;5.63;1.90;;;3.70;98.60;;;;;;5008810;28;20250;-55
2022/02/22 01:04:28;;;;;;;9.47;1.90;;;3.70;98.40;;;;;;5009021;28;20371;-55
2022/02/22 01:06:54;;;;;;;6.53;2.20;;;3.70;97.90;;;;;;5009392;28;20967;-53
2022/02/22 01:09:21;;;;;;;8.60;2.00;;;3.70;98.20;;;;;;5006384;28;20185;-55
2022/02/22 01:11:47;;;;;;;6.80;1.87;;;3.70;97.50;;;;;;5007905;28;20455;-55
2022/02/22 01:14:13;;;;;;;4.23;1.70;;;3.70;98.10;;;;;;5007391;28;20434;-53
2022/02/22 01:16:39;;;;;;;3.50;1.47;;;3.70;97.70;;;;;;5008153;28;20431;-55
2022/02/22 01:19:05;;;;;;;6.87;2.63;;;3.70;98.20;;;;;;5007559;28;20995;-55
2022/02/22 01:21:32;;;;;;;6.00;1.70;;;3.70;98.70;;;;;;5010135;28;20695;-55
2022/02/22 01:23:58;;;;;;;4.53;2.07;;;3.70;99.60;;;;;;5006674;28;20265;-57
2022/02/22 01:26:24;;;;;;;3.33;1.70;;;3.70;99.60;;;;;;5008226;28;20463;-57
2022/02/22 01:28:50;;;;;;;6.10;1.73;;;3.70;99.90;;;;;;5005011;28;20546;-55
2022/02/22 01:31:15;;;;;;;4.37;1.73;;;3.70;99.90;;;;;;5007954;28;20327;-55
2022/02/22 01:33:41;;;;;;;11.10;2.10;;;3.60;99.90;;;;;;5007813;28;20179;-54
2022/02/22 01:36:07;;;;;;;4.43;1.83;;;3.60;99.90;;;;;;5007192;28;20173;-55
2022/02/22 01:38:33;;;;;;;3.23;1.60;;;3.50;99.90;;;;;;5004396;28;20781;-55
2022/02/22 01:40:59;;;;;;;6.20;1.90;;;3.50;99.90;;;;;;5001949;28;20236;-56
2022/02/22 01:43:25;;;;;;;13.40;1.83;;;3.50;99.90;;;;;;5007324;28;20470;-57
2022/02/22 01:45:51;;;;;;;5.60;1.87;;;3.50;99.90;;;;;;5009685;28;20318;-55
2022/02/22 01:48:16;;;;;;;8.77;1.70;;;3.50;99.90;;;;;;5005315;28;20227;-55
2022/02/22 01:50:43;;;;;;;4.33;1.93;;;3.40;99.90;;;;;;5006906;28;20475;-56
2022/02/22 01:53:09;;;;;;;7.17;1.73;;;3.50;99.40;;;;;;5006871;28;20175;-55
2022/02/22 01:55:36;;;;;;;4.73;1.93;;;3.40;99.60;;;;;;5006310;28;20442;-54
2022/02/22 01:58:03;;;;;;;4.40;1.70;;;3.50;98.30;;;;;;5011014;28;20932;-55
2022/02/22 02:00:31;;;;;;;5.50;1.73;;;3.50;96.80;;;;;;5005612;28;20751;-55
2022/02/22 02:02:58;;;;;;;6.07;1.73;;;3.50;96.30;;;;;;5004948;28;20950;-56
2022/02/22 02:05:24;;;;;;;4.47;2.20;;;3.50;96.40;;;;;;5007501;28;20842;-56
2022/02/22 02:07:50;;;;;;;3.77;1.87;;;3.50;96.80;;;;;;5010167;28;20940;-55
2022/02/22 02:10:16;;;;;;;2.57;1.67;;;3.40;95.90;;;;;;5004889;28;20449;-56
2022/02/22 02:12:42;;;;;;;3.17;1.30;;;3.40;95.60;;;;;;5008283;28;20499;-56
2022/02/22 02:15:09;;;;;;;2.57;1.80;;;3.40;95.30;;;;;;5007477;28;20175;-56
2022/02/22 02:17:35;;;;;;;2.20;1.40;;;3.40;95.30;;;;;;5006193;28;20419;-57
2022/02/22 02:20:03;;;;;;;6.80;1.90;;;3.40;94.60;;;;;;5004866;28;20513;-55
2022/02/22 02:22:28;;;;;;;8.40;1.70;;;3.40;94.50;;;;;;5006865;28;20443;-56
2022/02/22 02:24:54;;;;;;;3.57;1.60;;;3.40;92.90;;;;;;5006748;28;20484;-55
2022/02/22 02:27:20;;;;;;;8.33;2.10;;;3.40;92.80;;;;;;5007984;28;20196;-56
2022/02/22 02:29:46;;;;;;;7.33;1.53;;;3.40;92.90;;;;;;4988203;28;20231;-57
2022/02/22 02:32:11;;;;;;;3.90;1.90;;;3.40;93.10;;;;;;5008014;28;20667;-55
2022/02/22 02:34:37;;;;;;;5.30;1.60;;;3.40;93.70;;;;;;5008191;28;20410;-54
2022/02/22 02:37:03;;;;;;;5.27;1.87;;;3.50;94.50;;;;;;5007315;28;20275;-55
2022/02/22 02:39:28;;;;;;;3.53;1.90;;;3.50;94.30;;;;;;5001636;28;20263;-54
2022/02/22 02:41:55;;;;;;;6.40;1.80;;;3.50;94.40;;;;;;5004662;28;20207;-56
2022/02/22 02:44:22;;;;;;;5.23;1.77;;;3.50;94.40;;;;;;5004281;28;20176;-55
2022/02/22 02:46:48;;;;;;;6.57;2.00;;;3.50;94.70;;;;;;5004639;28;20533;-56
2022/02/22 02:49:15;;;;;;;7.23;1.90;;;3.50;95.60;;;;;;5000640;28;20517;-54
2022/02/22 02:51:42;;;;;;;5.70;1.90;;;3.60;96.80;;;;;;5023522;22;20565;-59
2022/02/22 02:54:08;;;;;;;6.20;1.77;;;3.50;98.20;;;;;;4988291;28;20439;-60
2022/02/22 02:56:34;;;;;;;15.23;2.57;;;3.50;99.70;;;;;;4985452;28;20844;-59
2022/02/22 02:59:02;;;;;;;5.70;2.00;;;3.50;99.90;;;;;;4989567;28;20433;-60
2022/02/22 03:01:30;;;;;;;4.87;1.77;;;3.50;99.90;;;;;;4996763;28;20451;-59
2022/02/22 03:03:57;;;;;;;5.80;1.90;;;3.40;99.90;;;;;;5001557;28;20513;-58
2022/02/22 03:06:23;;;;;;;1.80;1.40;;;3.40;99.90;;;;;;5006483;28;20447;-59
2022/02/22 03:08:49;;;;;;;1.57;1.20;;;3.40;99.90;;;;;;4988375;28;20992;-57
2022/02/22 03:11:14;;;;;;;2.57;1.10;;;3.30;99.90;;;;;;4985134;28;20474;-58
2022/02/22 03:13:41;;;;;;;3.53;1.40;;;3.30;99.90;;;;;;4986174;28;20764;-58
2022/02/22 03:16:07;;;;;;;3.50;1.80;;;3.30;99.90;;;;;;4985917;28;20200;-58
2022/02/22 03:18:33;;;;;;;2.83;1.60;;;3.20;99.90;;;;;;4981623;28;20953;-58
2022/02/22 03:20:59;;;;;;;3.37;1.23;;;3.20;99.90;;;;;;4987690;28;20185;-59
2022/02/22 03:23:25;;;;;;;1.37;1.27;;;3.20;99.90;;;;;;4985332;28;20443;-57
2022/02/22 03:25:51;;;;;;;2.03;1.27;;;3.10;99.90;;;;;;4987005;28;20463;-58
2022/02/22 03:28:17;;;;;;;2.87;1.20;;;3.10;99.90;;;;;;4985982;28;20208;-58
2022/02/22 03:30:43;;;;;;;1.30;1.20;;;3.10;99.90;;;;;;4984341;28;20439;-58
2022/02/22 03:33:10;;;;;;;3.80;1.40;;;3.20;99.90;;;;;;4985062;28;20456;-57
2022/02/22 03:35:36;;;;;;;3.07;1.37;;;3.10;99.90;;;;;;4983082;28;20181;-57
2022/02/22 03:38:02;;;;;;;3.53;1.50;;;3.10;99.90;;;;;;4984921;28;20436;-58
2022/02/22 03:40:28;;;;;;;1.90;1.40;;;3.10;99.90;;;;;;4985987;28;20463;-57
2022/02/22 03:42:54;;;;;;;1.50;1.40;;;3.10;99.90;;;;;;4985748;28;20553;-57
2022/02/22 03:45:20;;;;;;;2.70;1.60;;;3.10;99.90;;;;;;4986293;28;20182;-57
2022/02/22 03:47:45;;;;;;;3.13;1.43;;;3.10;99.90;;;;;;4987293;28;20287;-57
2022/02/22 03:50:13;;;;;;;1.60;1.50;;;3.10;99.90;;;;;;4985543;28;20664;-57
2022/02/22 03:52:39;;;;;;;5.10;1.60;;;3.10;99.90;;;;;;4958671;28;1176664;-58
2022/02/22 03:55:07;;;;;;;4.17;3.17;;;3.10;99.90;;;;;;4985258;28;20556;-57
2022/02/22 03:57:33;;;;;;;6.23;1.83;;;3.10;99.90;;;;;;4986753;28;20985;-58
2022/02/22 03:59:59;;;;;;;3.00;2.37;;;3.10;99.90;;;;;;4985112;28;20440;-57
2022/02/22 04:02:26;;;;;;;3.37;1.80;;;3.10;99.90;;;;;;4986235;28;21109;-57
2022/02/22 04:04:51;;;;;;;4.63;1.70;;;3.10;99.90;;;;;;4986583;28;20447;-57
2022/02/22 04:07:17;;;;;;;3.00;1.60;;;3.10;99.90;;;;;;4987800;28;20454;-57
2022/02/22 04:09:43;;;;;;;4.30;2.33;;;3.10;99.90;;;;;;4985908;28;21156;-57
2022/02/22 04:12:09;;;;;;;5.63;2.40;;;3.10;99.90;;;;;;4987685;28;20500;-57
2022/02/22 04:14:34;;;;;;;6.00;1.90;;;3.10;99.90;;;;;;4985664;28;20176;-60
2022/02/22 04:17:00;;;;;;;3.20;2.20;;;3.20;99.90;;;;;;4986299;28;20434;-58
2022/02/22 04:19:26;;;;;;;6.37;2.80;;;3.10;99.90;;;;;;4984342;28;20173;-57
2022/02/22 04:21:51;;;;;;;6.50;2.77;;;3.20;99.90;;;;;;4985618;28;20197;-57
2022/02/22 04:24:17;;;;;;;5.50;2.33;;;3.20;99.90;;;;;;4987476;28;20199;-57
2022/02/22 04:26:43;;;;;;;6.93;2.43;;;3.20;99.90;;;;;;4986847;28;20608;-58
2022/02/22 04:29:08;;;;;;;5.00;2.43;;;3.20;99.90;;;;;;4983796;28;20263;-57
2022/02/22 04:31:38;;;;;;;4.20;2.43;;;3.20;99.90;;;;;;4986161;28;20461;-58
2022/02/22 04:34:08;;;;;;;6.80;2.80;;;3.20;99.90;;;;;;4986713;28;20657;-58
2022/02/22 04:36:34;;;;;;;5.40;2.30;;;3.20;99.90;;;;;;4985686;28;20526;-59
2022/02/22 04:39:01;;;;;;;8.20;2.80;;;3.20;99.90;;;;;;4986670;28;21017;-58
2022/02/22 04:41:27;;;;;;;5.00;2.60;;;3.20;99.90;;;;;;4987472;28;20428;-57
2022/02/22 04:43:52;;;;;;;3.23;2.30;;;3.20;99.90;;;;;;4985856;28;20496;-59
2022/02/22 04:46:18;;;;;;;5.60;2.50;;;3.20;99.90;;;;;;4984053;28;22304;-58
2022/02/22 04:48:44;;;;;;;5.80;2.40;;;3.20;99.90;;;;;;4986252;28;20468;-58
2022/02/22 04:51:09;;;;;;;4.73;2.47;;;3.30;99.90;;;;;;4984492;28;20232;-58
2022/02/22 04:53:35;;;;;;;7.47;2.70;;;3.30;99.90;;;;;;4985170;28;20266;-55
2022/02/22 04:56:01;;;;;;;8.40;2.50;;;3.30;99.90;;;;;;4986389;28;20181;-55
2022/02/22 04:58:26;;;;;;;4.60;2.63;;;3.30;99.90;;;;;;4983977;28;20541;-55
2022/02/22 05:00:52;;;;;;;5.20;2.30;;;3.30;99.90;;;;;;4983134;28;20177;-56
2022/02/22 05:05:54;;;;;;;4.00;2.10;;;3.30;99.90;;;;;;5211112;22;20473;-61
2022/02/22 05:08:20;;;;;;;8.07;2.83;;;3.40;99.90;;;;;;4971622;28;20492;-63
2022/02/22 05:10:47;;;;;;;8.80;2.67;;;3.40;99.90;;;;;;4982034;28;20441;-61
2022/02/22 05:13:12;;;;;;;6.07;2.30;;;3.40;99.90;;;;;;4984687;28;20436;-64
2022/02/22 05:15:38;;;;;;;6.90;3.17;;;3.40;99.90;;;;;;4963262;28;20453;-60
2022/02/22 05:18:04;;;;;;;9.30;2.97;;;3.50;99.90;;;;;;4958121;28;20436;-60
2022/02/22 05:20:31;;;;;;;5.93;2.97;;;3.40;99.90;;;;;;4957618;28;20236;-61
2022/02/22 05:22:57;;;;;;;12.73;2.73;;;3.40;99.90;;;;;;4959248;28;20446;-58
2022/02/22 05:25:23;;;;;;;6.10;2.77;;;3.50;99.90;;;;;;4959256;28;20932;-57
2022/02/22 05:27:48;;;;;;;6.40;2.83;;;3.50;99.90;;;;;;4939724;28;20464;-58
2022/02/22 05:30:16;;;;;;;4.57;2.60;;;3.50;99.90;;;;;;4959856;28;20256;-58
2022/02/22 05:32:42;;;;;;;8.07;2.60;;;3.50;99.90;;;;;;4959355;28;20197;-58
2022/02/22 05:35:10;;;;;;;9.07;2.90;;;3.50;99.90;;;;;;4960538;28;20460;-59
2022/02/22 05:37:35;;;;;;;10.73;2.50;;;3.50;99.90;;;;;;4966571;28;20495;-58
2022/02/22 05:40:04;;;;;;;8.20;3.13;;;3.50;99.90;;;;;;4961389;28;20994;-59
2022/02/22 05:42:29;;;;;;;7.13;2.90;;;3.50;99.90;;;;;;4949551;28;20190;-59
2022/02/22 05:44:56;;;;;;;7.23;2.40;;;3.50;99.90;;;;;;4959614;28;20464;-59
2022/02/22 05:47:22;;;;;;;7.53;3.60;;;3.50;99.90;;;;;;4961743;28;20253;-59
2022/02/22 05:49:47;;;;;;;9.77;2.97;;;3.50;99.90;;;;;;4947892;28;20438;-58
2022/02/22 05:52:14;;;;;;;8.47;3.10;;;3.60;99.90;;;;;;4964033;28;20434;-58
2022/02/22 05:54:40;;;;;;;9.47;2.77;;;3.60;99.90;;;;;;4961085;28;20198;-58
2022/02/22 05:57:06;;;;;;;8.30;3.47;;;3.60;99.90;;;;;;4969829;28;20446;-58
2022/02/22 05:59:32;;;;;;;6.80;3.43;;;3.60;99.90;;;;;;4965384;28;20530;-58
2022/02/22 06:01:58;;;;;;;7.47;3.60;;;3.60;99.90;;;;;;4960394;28;23101;-58
2022/02/22 06:04:26;;;;;;;8.00;3.67;;;3.60;99.90;;;;;;4963259;28;20628;-56
2022/02/22 06:06:52;;;;;;;9.00;4.10;;;3.60;99.90;;;;;;4958806;28;20440;-58
2022/02/22 06:09:18;;;;;;;8.33;3.30;;;3.60;99.90;;;;;;4964185;28;20487;-58
2022/02/22 06:11:43;;;;;;;15.67;2.90;;;3.60;99.90;;;;;;4971571;28;20524;-58
2022/02/22 06:14:09;;;;;;;4.07;2.50;;;3.60;99.90;;;;;;4969736;28;20500;-58
2022/02/22 06:16:35;;;;;;;5.17;2.70;;;3.60;99.90;;;;;;4955176;28;20179;-58
2022/02/22 06:19:01;;;;;;;4.23;2.27;;;3.50;99.90;;;;;;4966396;28;20436;-58
2022/02/22 06:21:27;;;;;;;6.80;3.07;;;3.50;99.90;;;;;;4977453;28;20177;-58
2022/02/22 06:23:52;;;;;;;3.53;2.30;;;3.50;99.90;;;;;;4981783;28;20427;-57
2022/02/22 06:26:18;;;;;;;8.13;3.00;;;3.60;99.90;;;;;;4968537;28;20801;-58
2022/02/22 06:28:46;;;;;;;6.93;3.37;;;3.60;99.90;;;;;;4970471;28;20625;-58
2022/02/22 06:31:12;;;;;;;4.97;2.73;;;3.60;99.90;;;;;;4952189;28;20553;-58
2022/02/22 06:33:37;;;;;;;7.43;3.20;;;3.60;99.90;;;;;;4970418;28;20921;-58
2022/02/22 06:36:03;;;;;;;7.10;3.63;;;3.70;99.90;;;;;;4959866;28;20456;-58
2022/02/22 06:38:29;;;;;;;7.40;3.43;;;3.70;99.90;;;;;;4970354;28;20170;-58
2022/02/22 06:40:55;;;;;;;3.40;2.83;;;3.70;99.90;;;;;;4972721;28;20928;-58
2022/02/22 06:43:20;;;;;;;4.93;2.90;;;3.70;99.90;;;;;;4982342;28;20177;-57
2022/02/22 06:45:46;;;;;;;7.30;2.90;;;3.70;99.90;;;;;;4979548;28;20190;-57
2022/02/22 06:48:14;;;;;;;9.03;2.50;;;3.70;99.90;;;;;;4973025;28;20211;-58
2022/02/22 06:50:40;;;;;;;4.90;2.50;;;3.70;99.90;;;;;;4972298;28;20170;-58
2022/02/22 06:53:06;;;;;;;6.37;3.10;;;3.70;99.90;;;;;;4938655;28;20422;-58
2022/02/22 06:55:32;;;;;;;6.43;2.67;;;3.70;99.90;;;;;;4962294;28;20511;-58
2022/02/22 06:58:03;;;;;;;6.13;2.97;;;3.70;99.90;;;;;;4978062;28;20185;-58
2022/02/22 07:00:30;;;;;;;6.70;3.30;;;3.70;99.90;;;;;;4971733;28;20589;-58
2022/02/22 07:02:56;;;;;;;11.43;2.83;;;3.70;99.90;;;;;;4967782;28;20924;-58
2022/02/22 07:05:22;;;;;;;4.73;2.90;;;3.70;99.90;;;;;;4971567;28;20453;-59
2022/02/22 07:07:47;;;;;;;3.60;2.50;;;3.80;99.90;;;;;;4972696;28;20456;-58
2022/02/22 07:10:13;;;;;;;9.07;2.37;;;3.80;99.90;;;;;;4979140;28;20591;-59
2022/02/22 07:12:39;;;;;;;5.13;2.60;;;3.80;99.90;;;;;;4968583;28;20257;-57
2022/02/22 07:15:05;;;;;;;5.77;2.30;;;3.80;99.90;;;;;;4972921;28;20194;-58
2022/02/22 07:17:31;;;;;;;7.30;3.10;;;3.70;99.90;;;;;;4973408;28;20237;-57
2022/02/22 07:19:56;;;;;;;6.47;3.30;;;3.70;99.90;;;;;;4952353;28;20458;-58
2022/02/22 07:22:22;;;;;;;5.60;2.80;;;3.70;99.90;;;;;;4958862;28;20174;-59
2022/02/22 07:24:48;;;;;;;12.90;3.80;;;3.70;99.90;;;;;;4981192;28;20200;-58
2022/02/22 07:27:14;;;;;;;5.90;2.93;;;3.70;99.90;;;;;;4964922;28;20524;-59
2022/02/22 07:29:40;;;;;;;11.03;4.20;;;3.70;99.90;;;;;;4976646;28;20548;-59
2022/02/22 07:32:06;;;;;;;10.47;4.83;;;3.70;99.90;;;;;;4976731;28;20205;-58
2022/02/22 07:34:32;;;;;;;12.53;3.70;;;3.70;99.90;;;;;;4963504;28;20666;-58
2022/02/22 07:36:57;;;;;;;7.13;4.30;;;3.70;99.90;;;;;;4963161;28;20952;-58
2022/02/22 07:39:23;;;;;;;5.90;3.43;;;3.70;99.90;;;;;;4968936;28;20188;-58
2022/02/22 07:41:49;;;;;;;6.73;3.40;;;3.70;99.90;;;;;;4978560;28;20192;-57
2022/02/22 07:44:15;;;;;;;8.27;3.33;;;3.80;99.90;;;;;;4953099;28;20205;-57
2022/02/22 07:46:40;;;;;;;9.40;4.20;;;3.80;99.90;;;;;;4956362;28;22035;-58
2022/02/22 07:49:06;;;;;;;7.17;2.90;;;3.80;99.90;;;;;;4976913;28;20577;-58
2022/02/22 07:51:32;;;;;;;6.07;3.03;;;3.90;99.90;;;;;;4964624;28;20178;-59
2022/02/22 07:53:57;;;;;;;6.80;3.67;;;3.90;99.90;;;;;;4958378;28;20256;-58
2022/02/22 07:56:23;;;;;;;5.30;2.97;;;3.90;99.90;;;;;;4974534;28;20193;-59
2022/02/22 07:58:49;;;;;;;5.60;2.90;;;4.00;99.90;;;;;;4968356;28;20273;-59
2022/02/22 08:01:15;;;;;;;7.27;3.43;;;4.10;99.90;;;;;;4970418;28;20213;-58
2022/02/22 08:03:44;;;;;;;10.87;3.60;;;4.10;99.90;;;;;;4970365;28;20268;-59
2022/02/22 08:06:11;;;;;;;12.40;3.17;;;4.30;99.90;;;;;;4946514;28;20217;-59
2022/02/22 08:08:38;;;;;;;6.17;3.20;;;4.40;99.90;;;;;;4967106;28;20471;-59
2022/02/22 08:11:03;;;;;;;16.67;2.87;;;4.50;99.90;;;;;;4969635;28;20526;-59
2022/02/22 08:13:29;;;;;;;12.13;3.33;;;4.60;99.90;;;;;;4971256;28;20466;-58
2022/02/22 08:15:55;;;;;;;5.33;3.00;;;4.60;99.90;;;;;;4967950;28;20260;-59
2022/02/22 08:18:20;;;;;;;4.83;2.47;;;4.60;99.90;;;;;;4972351;28;20212;-58
2022/02/22 08:20:46;;;;;;;10.53;2.63;;;4.70;99.90;;;;;;4965461;28;20183;-59
2022/02/22 08:23:11;;;;;;;5.90;1.93;;;4.70;99.20;;;;;;4969218;28;20200;-58
2022/02/22 08:25:37;;;;;;;7.83;2.60;;;4.80;99.60;;;;;;4964938;28;20202;-58
2022/02/22 08:28:08;;;;;;;16.53;3.50;;;4.80;98.30;;;;;;4963431;28;20232;-58
2022/02/22 08:30:34;;;;;;;5.90;2.77;;;4.80;98.50;;;;;;4960381;28;20554;-59
2022/02/22 08:33:00;;;;;;;8.70;3.00;;;4.90;98.40;;;;;;4978204;28;20948;-59
2022/02/22 08:35:26;;;;;;;10.13;2.73;;;4.90;98.00;;;;;;4966382;28;20771;-58
2022/02/22 08:37:54;;;;;;;5.83;2.33;;;5.00;96.60;;;;;;4964044;28;20811;-60
2022/02/22 08:40:20;;;;;;;8.60;2.00;;;5.00;94.30;;;;;;4973463;28;20224;-60
2022/02/22 08:42:45;;;;;;;11.83;3.00;;;5.10;93.20;;;;;;4965699;28;20960;-60
2022/02/22 08:45:11;;;;;;;12.93;3.10;;;5.10;91.10;;;;;;4959310;28;20208;-60
2022/02/22 08:47:36;;;;;;;9.77;2.30;;;5.10;92.50;;;;;;4963514;28;20335;-60
2022/02/22 08:50:02;;;;;;;8.43;2.57;;;5.20;91.80;;;;;;4970392;28;20180;-61
2022/02/22 08:52:29;;;;;;;5.83;2.30;;;5.20;91.50;;;;;;4960405;28;20174;-60
2022/02/22 08:54:56;;;;;;;5.67;2.60;;;5.20;90.60;;;;;;4961785;28;20554;-60
2022/02/22 08:57:21;;;;;;;5.07;2.63;;;5.20;90.90;;;;;;4962048;28;20984;-59
2022/02/22 08:59:47;;;;;;;6.50;2.73;;;5.20;91.20;;;;;;4970013;28;20473;-60
2022/02/22 09:02:13;;;;;;;6.33;2.60;;;5.10;91.90;;;;;;4969584;28;20629;-60
2022/02/22 09:04:39;;;;;;;9.47;3.07;;;5.10;92.40;;;;;;4970014;28;20224;-60
2022/02/22 09:07:05;;;;;;;10.50;3.00;;;5.10;93.40;;;;;;4964910;28;20508;-60
2022/02/22 09:09:30;;;;;;;8.37;2.87;;;5.00;94.10;;;;;;4984931;28;20461;-60
2022/02/22 09:11:56;;;;;;;4.20;2.80;;;5.00;94.60;;;;;;4965785;28;20181;-61
2022/02/22 09:14:22;;;;;;;11.43;2.77;;;5.00;95.50;;;;;;4969894;28;20272;-60
2022/02/22 09:16:48;;;;;;;5.40;2.47;;;5.00;95.80;;;;;;4975474;28;20181;-61
2022/02/22 09:19:14;;;;;;;5.77;2.90;;;5.00;95.90;;;;;;4970842;28;20504;-61
2022/02/22 09:21:39;;;;;;;6.80;2.67;;;5.00;96.70;;;;;;4972000;28;20190;-60
2022/02/22 09:24:05;;;;;;;8.13;2.70;;;5.00;97.50;;;;;;4966791;28;20212;-60
2022/02/22 09:26:31;;;;;;;7.13;2.70;;;5.00;98.90;;;;;;4967302;28;20205;-60
2022/02/22 09:28:58;;;;;;;7.70;2.60;;;5.10;98.80;;;;;;4967765;28;20219;-61
2022/02/22 09:31:25;;;;;;;5.60;2.47;;;5.10;99.60;;;;;;4949047;28;20265;-60
2022/02/22 09:33:51;;;;;;;10.70;3.43;;;5.20;99.70;;;;;;4966872;28;20470;-60
2022/02/22 09:36:18;;;;;;;10.97;3.03;;;5.30;99.90;;;;;;4966260;28;21088;-61
2022/02/22 09:38:44;;;;;;;5.10;2.87;;;5.30;99.90;;;;;;4968789;28;20802;-61
2022/02/22 09:41:10;;;;;;;6.40;2.37;;;5.30;99.90;;;;;;4967793;28;20643;-60
2022/02/22 09:43:36;;;;;;;5.10;2.50;;;5.30;99.90;;;;;;4964139;28;21007;-60
2022/02/22 09:46:04;;;;;;;4.87;2.33;;;5.30;99.90;;;;;;4968514;28;20503;-61
2022/02/22 09:48:30;;;;;;;12.67;3.00;;;5.20;99.90;;;;;;4968848;28;20221;-61
2022/02/22 09:50:56;;;;;;;8.33;2.37;;;5.20;99.90;;;;;;4953114;28;20433;-60
2022/02/22 09:53:22;;;;;;;20.17;2.77;;;5.20;99.90;;;;;;4969940;28;20228;-60
2022/02/22 09:55:47;;;;;;;4.80;2.23;;;5.20;99.90;;;;;;4960180;28;20531;-60
2022/02/22 09:58:13;;;;;;;5.07;2.30;;;5.20;99.90;;;;;;4968794;28;20178;-60
2022/02/22 10:00:39;;;;;;;4.60;2.30;;;5.10;99.90;;;;;;4974711;28;20292;-60
2022/02/22 10:03:16;;;;;;;7.30;2.20;;;5.10;99.90;;;;;;4966817;28;20186;-61
2022/02/22 10:05:52;;;;;;;2.07;1.57;;;5.00;99.90;;;;;;4970326;28;21168;-61
2022/02/22 10:08:33;;;;;;;3.13;2.20;;;4.90;99.90;;;;;;4968983;28;20982;-60
2022/02/22 10:11:10;;;;;;;9.53;2.40;;;4.80;99.90;;;;;;4971081;28;20717;-60
2022/02/22 10:13:37;;;;;;;5.10;1.83;;;4.60;99.90;;;;;;4965167;28;20421;-61
2022/02/22 10:16:12;;;;;;;5.90;2.07;;;4.50;99.90;;;;;;4960479;28;20512;-60
2022/02/22 10:19:04;;;;;;;5.63;1.93;;;4.50;99.90;;;;;;4952023;28;20961;-61
2022/02/22 10:21:40;;;;;;;6.60;2.27;;;4.50;99.90;;;;;;4957104;28;20456;-61
2022/02/22 10:24:07;;;;;;;5.70;2.27;;;4.50;99.90;;;;;;4957376;28;20432;-60
2022/02/22 10:26:33;;;;;;;3.33;1.70;;;4.60;99.90;;;;;;4951615;28;20431;-60
2022/02/22 10:29:11;;;;;;;3.53;1.70;;;4.80;99.90;;;;;;4968288;28;20511;-60
2022/02/22 10:31:38;;;;;;;10.67;2.90;;;5.00;99.90;;;;;;4969601;28;20177;-60
2022/02/22 10:34:03;;;;;;;4.83;2.53;;;5.30;99.90;;;;;;4964479;28;20465;-58
2022/02/22 10:36:34;;;;;;;7.00;1.87;;;5.50;99.90;;;;;;4949486;28;20504;-59
2022/02/22 10:39:11;;;;;;;1.60;1.50;;;5.90;99.90;;;;;;4963472;28;20241;-61
2022/02/22 10:41:42;;;;;;;1.47;1.30;;;6.10;99.90;;;;;;4966665;28;20961;-61
2022/02/22 10:44:10;;;;;;;2.40;1.50;;;6.20;99.90;;;;;;4957549;28;20441;-60
2022/02/22 10:46:37;;;;;;;2.00;1.50;;;6.20;99.90;;;;;;4986537;28;20446;-60
2022/02/22 10:49:06;;;;;;;6.23;1.80;;;6.20;99.90;;;;;;4966849;28;20827;-60
2022/02/22 10:51:35;;;;;;;2.97;1.80;;;6.30;99.90;;;;;;4970082;28;21001;-60
2022/02/22 10:54:01;;;;;;;2.50;1.83;;;6.30;99.90;;;;;;4956584;28;20426;-60
2022/02/22 10:56:30;;;;;;;6.70;2.00;;;6.40;99.90;;;;;;4964545;28;20905;-61
2022/02/22 10:58:57;;;;;;;4.00;1.83;;;6.60;99.90;;;;;;4974091;28;20421;-60
2022/02/22 11:01:23;;;;;;;3.23;1.97;;;6.80;92.80;;;;;;4969434;28;20507;-60
2022/02/22 11:03:50;;;;;;;5.03;2.30;;;6.90;94.50;;;;;;4960854;28;20437;-60
2022/02/22 11:06:19;;;;;;;6.27;2.10;;;7.10;93.40;;;;;;4959123;28;20457;-60
2022/02/22 11:08:48;;;;;;;4.80;2.57;;;7.30;85.60;;;;;;4969995;28;20460;-60
2022/02/22 11:11:32;;;;;;;3.10;1.70;;;7.20;80.60;;;;;;4952090;29;20418;-60
2022/02/22 11:14:07;;;;;;;2.53;1.50;;;7.20;90.80;;;;;;4967580;28;20524;-60
2022/02/22 11:16:47;;;;;;;3.33;1.43;;;7.40;93.40;;;;;;4972372;28;20431;-60
2022/02/22 11:19:21;;;;;;;7.13;1.70;;;7.60;90.10;;;;;;4976726;28;20818;-60
2022/02/22 11:22:19;;;;;;;8.03;2.47;;;7.90;82.20;;;;;;4973903;28;20797;-66
2022/02/22 11:24:54;;;;;;;4.63;1.97;;;8.00;77.00;;;;;;4950296;28;20468;-61
2022/02/22 11:27:35;;;;;;;4.87;2.20;;;8.00;77.50;;;;;;4970557;28;20444;-59
2022/02/22 11:30:12;;;;;;;3.03;2.40;;;8.00;79.30;;;;;;4970145;28;20528;-61
2022/02/22 11:32:40;;;;;;;8.50;2.80;;;7.90;77.30;;;;;;4955530;28;20425;-60
2022/02/22 11:35:10;;;;;;;12.10;3.00;;;7.70;78.20;;;;;;4953337;28;20502;-59
2022/02/22 11:37:36;;;;;;;11.00;2.57;;;7.70;81.50;;;;;;4972482;28;20437;-60
2022/02/22 11:40:02;;;;;;;8.87;2.60;;;7.80;82.70;;;;;;4969820;28;20436;-60
2022/02/22 11:42:32;;;;;;;6.33;2.60;;;8.20;78.20;;;;;;4972157;28;20325;-60
2022/02/22 11:44:59;;;;;;;16.77;2.67;;;8.20;70.70;;;;;;4972262;28;20472;-60
2022/02/22 11:47:25;;;;;;;5.63;2.37;;;8.10;70.30;;;;;;4966784;28;20885;-60
2022/02/22 11:49:54;;;;;;;8.80;2.50;;;7.90;68.90;;;;;;4972630;28;20952;-60
2022/02/22 11:52:20;;;;;;;8.20;2.70;;;8.00;72.40;;;;;;4950104;29;20183;-60
2022/02/22 11:54:46;;;;;;;12.43;2.90;;;8.50;68.50;;;;;;4967095;28;20464;-61
2022/02/22 11:57:17;;;;;;;4.80;1.90;;;8.90;66.60;;;;;;4971245;28;20449;-60
2022/02/22 11:59:59;;;;;;;7.40;2.70;;;9.10;63.50;;;;;;4973668;28;20540;-60
2022/02/22 12:02:30;;;;;;;9.30;2.50;;;9.30;62.20;;;;;;4971064;28;20417;-60
2022/02/22 12:04:56;;;;;;;5.73;2.20;;;9.10;61.70;;;;;;4972230;28;20865;-61
2022/02/22 12:07:26;;;;;;;9.80;2.53;;;8.90;61.70;;;;;;4970698;28;21070;-60
2022/02/22 12:09:55;;;;;;;10.57;2.60;;;8.60;61.20;;;;;;4965302;28;20452;-56
2022/02/22 12:12:21;;;;;;;9.03;2.87;;;8.50;62.20;;;;;;4965549;28;20437;-55
2022/02/22 12:14:58;;;;;;;19.30;4.80;;;8.50;59.90;;;;;;4973540;28;20452;-57
2022/02/22 12:17:24;;;;;;;9.70;2.40;;;8.20;59.60;;;;;;4974357;28;20815;-56
2022/02/22 12:19:52;;;;;;;10.30;2.37;;;8.10;59.20;;;;;;4968118;28;20422;-57
2022/02/22 12:22:19;;;;;;;13.57;2.43;;;8.00;59.30;;;;;;4970965;28;20445;-56
2022/02/22 12:24:44;;;;;;;13.63;2.77;;;8.10;58.80;;;;;;4969913;28;20524;-58
2022/02/22 12:27:14;;;;;;;14.03;2.40;;;8.10;59.10;;;;;;4969030;28;21011;-61
2022/02/22 12:29:40;;;;;;;9.80;2.60;;;8.30;59.40;;;;;;4960888;28;20755;-61
2022/02/22 12:32:07;;;;;;;14.13;2.60;;;8.60;59.40;;;;;;4946794;28;20445;-62
2022/02/22 12:34:33;;;;;;;8.87;2.83;;;8.80;56.20;;;;;;4963707;28;20452;-61
2022/02/22 12:37:01;;;;;;;9.77;2.40;;;8.90;56.30;;;;;;4968538;28;20429;-62
2022/02/22 12:39:29;;;;;;;5.93;2.10;;;9.00;55.00;;;;;;4967254;28;20178;-61
2022/02/22 12:41:59;;;;;;;11.30;2.57;;;9.00;54.80;;;;;;4976133;28;20439;-63
2022/02/22 12:44:26;;;;;;;15.10;2.97;;;8.90;54.70;;;;;;4971528;28;21032;-61
2022/02/22 12:46:57;;;;;;;9.33;2.30;;;8.90;54.60;;;;;;4973743;28;20815;-60
2022/02/22 12:49:24;;;;;;;8.00;2.80;;;9.00;55.20;;;;;;4965434;28;21096;-61
2022/02/22 12:52:01;;;;;;;10.40;2.70;;;9.20;55.00;;;;;;4959818;28;20521;-60
2022/02/22 12:54:27;;;;;;;9.93;2.97;;;9.50;53.80;;;;;;4969733;28;20459;-60
2022/02/22 12:56:58;;;;;;;11.40;3.30;;;9.60;53.90;;;;;;4964809;28;20516;-60